createdAt,value
2023-02-28T00:01:46.942Z,-63
2023-02-28T00:04:15.053Z,-64
2023-02-28T00:06:43.419Z,-63
2023-02-28T00:09:11.530Z,-63
2023-02-28T00:11:39.836Z,-64
2023-02-28T00:14:07.961Z,-63
2023-02-28T00:16:37.509Z,-64
2023-02-28T00:19:05.675Z,-63
2023-02-28T00:21:33.837Z,-63
2023-02-28T00:24:01.958Z,-64
2023-02-28T00:26:30.271Z,-63
2023-02-28T00:28:58.369Z,-64
2023-02-28T00:31:27.000Z,-66
2023-02-28T00:33:56.665Z,-64
2023-02-28T00:36:24.788Z,-63
2023-02-28T00:38:52.929Z,-62
2023-02-28T00:41:21.216Z,-63
2023-02-28T00:43:49.572Z,-63
2023-02-28T00:46:18.095Z,-64
2023-02-28T00:48:46.266Z,-65
2023-02-28T00:51:15.714Z,-63
2023-02-28T00:53:43.898Z,-63
2023-02-28T00:56:12.281Z,-62
2023-02-28T00:58:40.375Z,-64
2023-02-28T01:01:09.102Z,-63
2023-02-28T01:03:37.588Z,-63
2023-02-28T01:06:06.702Z,-63
2023-02-28T01:08:36.493Z,-63
2023-02-28T01:11:11.482Z,-63
2023-02-28T01:13:39.846Z,-63
2023-02-28T01:16:09.522Z,-62
2023-02-28T01:18:38.454Z,-64
2023-02-28T01:21:07.803Z,-63
2023-02-28T01:23:37.712Z,-63
2023-02-28T01:26:07.847Z,-64
2023-02-28T01:28:36.710Z,-64
2023-02-28T01:31:05.218Z,-63
2023-02-28T01:33:34.205Z,-65
2023-02-28T01:36:04.109Z,-63
2023-02-28T01:38:32.874Z,-63
2023-02-28T01:41:03.294Z,-63
2023-02-28T01:43:53.841Z,-62
2023-02-28T01:46:22.409Z,-63
2023-02-28T01:48:58.571Z,-62
2023-02-28T01:51:33.661Z,-66
2023-02-28T01:54:07.523Z,-65
2023-02-28T01:56:38.951Z,-63
2023-02-28T01:59:07.439Z,-63
2023-02-28T02:01:35.571Z,-63
2023-02-28T02:04:05.885Z,-63
2023-02-28T02:06:42.369Z,-63
2023-02-28T02:09:10.593Z,-64
2023-02-28T02:11:44.100Z,-63
2023-02-28T02:14:45.655Z,-63
2023-02-28T02:17:28.218Z,-63
2023-02-28T02:20:59.653Z,-63
2023-02-28T02:24:11.291Z,-63
2023-02-28T02:27:05.538Z,-64
2023-02-28T02:29:56.683Z,-63
2023-02-28T02:33:06.302Z,-63
2023-02-28T02:35:44.896Z,-63
2023-02-28T02:38:26.269Z,-63
2023-02-28T02:41:08.459Z,-63
2023-02-28T02:43:44.116Z,-64
2023-02-28T02:46:18.681Z,-63
2023-02-28T02:48:49.706Z,-64
2023-02-28T02:51:25.088Z,-63
2023-02-28T02:53:59.831Z,-63
2023-02-28T02:56:33.544Z,-63
2023-02-28T02:59:08.535Z,-63
2023-02-28T03:01:40.610Z,-63
2023-02-28T03:04:13.788Z,-62
2023-02-28T03:06:43.546Z,-65
2023-02-28T03:09:11.650Z,-63
2023-02-28T03:11:42.791Z,-62
2023-02-28T03:14:32.795Z,-64
2023-02-28T03:17:33.111Z,-63
2023-02-28T03:20:16.915Z,-63
2023-02-28T03:23:03.638Z,-63
2023-02-28T03:25:41.707Z,-63
2023-02-28T03:28:20.675Z,-63
2023-02-28T03:30:56.565Z,-63
2023-02-28T03:33:32.303Z,-56
2023-02-28T03:36:09.230Z,-59
2023-02-28T03:38:46.306Z,-57
2023-02-28T03:41:20.477Z,-59
2023-02-28T03:43:57.189Z,-57
2023-02-28T03:46:33.320Z,-60
2023-02-28T03:49:13.402Z,-59
2023-02-28T03:51:45.337Z,-56
2023-02-28T03:54:21.379Z,-58
2023-02-28T03:56:57.456Z,-56
2023-02-28T03:59:32.249Z,-58
2023-02-28T04:02:00.972Z,-55
2023-02-28T04:04:29.301Z,-56
2023-02-28T04:07:05.443Z,-57
2023-02-28T04:09:35.040Z,-56
2023-02-28T04:12:03.181Z,-57
2023-02-28T04:14:31.358Z,-58
2023-02-28T04:16:59.529Z,-57
2023-02-28T04:19:27.665Z,-58
2023-02-28T04:21:56.130Z,-57
2023-02-28T04:24:29.710Z,-55
2023-02-28T04:27:00.201Z,-58
2023-02-28T04:29:30.657Z,-57
2023-02-28T04:32:01.277Z,-56
2023-02-28T04:34:31.762Z,-58
2023-02-28T04:37:16.505Z,-56
2023-02-28T04:39:45.486Z,-57
2023-02-28T04:42:15.630Z,-59
2023-02-28T04:44:43.734Z,-57
2023-02-28T04:47:11.852Z,-58
2023-02-28T04:49:40.116Z,-57
2023-02-28T04:52:10.942Z,-58
2023-02-28T04:54:40.023Z,-59
2023-02-28T04:57:08.406Z,-59
2023-02-28T04:59:37.882Z,-58
2023-02-28T05:02:07.961Z,-58
2023-02-28T05:04:36.528Z,-58
2023-02-28T05:07:05.170Z,-57
2023-02-28T05:09:34.056Z,-60
2023-02-28T05:12:02.172Z,-57
2023-02-28T05:14:30.302Z,-58
2023-02-28T05:16:59.806Z,-59
2023-02-28T05:19:27.950Z,-58
2023-02-28T05:21:57.547Z,-59
2023-02-28T05:24:25.857Z,-58
2023-02-28T05:26:56.039Z,-56
2023-02-28T05:29:24.829Z,-60
2023-02-28T05:31:53.065Z,-57
2023-02-28T05:34:22.728Z,-57
2023-02-28T05:36:50.867Z,-56
2023-02-28T05:39:19.308Z,-56
2023-02-28T05:41:47.416Z,-56
2023-02-28T05:44:15.767Z,-55
2023-02-28T05:46:43.917Z,-58
2023-02-28T05:49:12.267Z,-58
2023-02-28T05:51:41.707Z,-58
2023-02-28T05:54:11.922Z,-56
2023-02-28T05:56:41.648Z,-57
2023-02-28T05:59:09.801Z,-57
2023-02-28T06:01:40.828Z,-57
2023-02-28T06:04:22.396Z,-57
2023-02-28T06:06:59.127Z,-56
2023-02-28T06:09:27.433Z,-56
2023-02-28T06:11:55.546Z,-57
2023-02-28T06:14:23.778Z,-56
2023-02-28T06:16:52.050Z,-57
2023-02-28T06:19:20.436Z,-58
2023-02-28T06:21:54.234Z,-59
2023-02-28T06:24:25.536Z,-59
2023-02-28T06:26:53.797Z,-59
2023-02-28T06:29:22.198Z,-56
2023-02-28T06:31:50.720Z,-58
2023-02-28T06:34:19.293Z,-57
2023-02-28T06:36:47.640Z,-58
2023-02-28T06:39:15.852Z,-59
2023-02-28T06:41:54.686Z,-58
2023-02-28T06:44:25.445Z,-59
2023-02-28T06:46:53.874Z,-57
2023-02-28T06:49:22.032Z,-55
2023-02-28T06:51:50.872Z,-56
2023-02-28T06:54:19.019Z,-58
2023-02-28T06:56:48.784Z,-57
2023-02-28T06:59:16.932Z,-56
2023-02-28T07:01:45.458Z,-58
2023-02-28T07:04:14.164Z,-57
2023-02-28T07:06:42.619Z,-56
2023-02-28T07:09:11.645Z,-58
2023-02-28T07:11:40.062Z,-57
2023-02-28T07:14:10.229Z,-57
2023-02-28T07:16:38.528Z,-57
2023-02-28T07:19:07.132Z,-56
2023-02-28T07:21:35.455Z,-56
2023-02-28T07:24:03.518Z,-57
2023-02-28T07:26:31.675Z,-60
2023-02-28T07:28:59.803Z,-59
2023-02-28T07:31:29.762Z,-58
2023-02-28T07:33:58.298Z,-57
2023-02-28T07:36:26.486Z,-57
2023-02-28T07:38:54.620Z,-58
2023-02-28T07:41:25.709Z,-58
2023-02-28T07:43:56.386Z,-57
2023-02-28T07:46:24.733Z,-59
2023-02-28T07:48:56.044Z,-57
2023-02-28T07:51:25.108Z,-55
2023-02-28T07:53:53.244Z,-61
2023-02-28T07:56:21.574Z,-58
2023-02-28T07:58:49.811Z,-54
2023-02-28T08:01:18.292Z,-55
2023-02-28T08:03:46.458Z,-57
2023-02-28T08:06:22.262Z,-58
2023-02-28T08:08:50.842Z,-58
2023-02-28T08:11:19.692Z,-55
2023-02-28T08:13:48.147Z,-59
2023-02-28T08:16:22.168Z,-58
2023-02-28T08:18:52.096Z,-59
2023-02-28T08:21:22.905Z,-56
2023-02-28T08:23:53.138Z,-58
2023-02-28T08:26:22.545Z,-56
2023-02-28T08:28:51.486Z,-56
2023-02-28T08:31:20.161Z,-58
2023-02-28T08:33:49.636Z,-56
2023-02-28T08:36:18.028Z,-54
2023-02-28T08:38:47.729Z,-57
2023-02-28T08:41:15.841Z,-57
2023-02-28T08:43:44.117Z,-59
2023-02-28T08:46:15.523Z,-55
2023-02-28T08:48:44.706Z,-57
2023-02-28T08:51:17.195Z,-57
2023-02-28T08:53:47.448Z,-56
2023-02-28T08:56:18.318Z,-56
2023-02-28T08:58:48.371Z,-57
2023-02-28T09:01:19.404Z,-57
2023-02-28T09:03:50.723Z,-56
2023-02-28T09:06:21.334Z,-58
2023-02-28T09:08:51.425Z,-55
2023-02-28T09:11:20.404Z,-59
2023-02-28T09:13:48.774Z,-58
2023-02-28T09:16:18.537Z,-58
2023-02-28T09:18:47.377Z,-56
2023-02-28T09:21:19.261Z,-58
2023-02-28T09:23:51.141Z,-56
2023-02-28T09:26:22.146Z,-58
2023-02-28T09:28:51.536Z,-56
2023-02-28T09:31:23.068Z,-56
2023-02-28T09:33:51.840Z,-56
2023-02-28T09:36:22.070Z,-55
2023-02-28T09:38:53.957Z,-56
2023-02-28T09:41:26.297Z,-57
2023-02-28T09:43:59.016Z,-58
2023-02-28T09:46:36.021Z,-55
2023-02-28T09:49:09.629Z,-58
2023-02-28T09:51:51.929Z,-59
2023-02-28T09:54:24.559Z,-56
2023-02-28T09:56:58.311Z,-57
2023-02-28T09:59:46.347Z,-55
2023-02-28T10:02:42.795Z,-57
2023-02-28T10:05:16.023Z,-60
2023-02-28T10:08:05.920Z,-58
2023-02-28T10:10:43.068Z,-57
2023-02-28T10:13:26.277Z,-60
2023-02-28T10:16:00.216Z,-58
2023-02-28T10:18:37.099Z,-59
2023-02-28T10:21:06.353Z,-58
2023-02-28T10:23:39.208Z,-54
2023-02-28T10:26:16.974Z,-58
2023-02-28T10:28:46.170Z,-58
2023-02-28T10:31:21.051Z,-55
2023-02-28T10:33:50.181Z,-59
2023-02-28T10:36:21.170Z,-55
2023-02-28T10:38:51.121Z,-59
2023-02-28T10:41:35.569Z,-59
2023-02-28T10:44:22.409Z,-59
2023-02-28T10:46:52.793Z,-57
2023-02-28T10:49:25.306Z,-55
2023-02-28T10:51:58.838Z,-56
2023-02-28T10:54:35.997Z,-59
2023-02-28T10:57:25.373Z,-57
2023-02-28T10:59:55.882Z,-55
2023-02-28T11:02:38.338Z,-57
2023-02-28T11:05:26.645Z,-58
2023-02-28T11:07:56.848Z,-59
2023-02-28T11:10:33.457Z,-58
2023-02-28T11:13:04.589Z,-57
2023-02-28T11:15:35.460Z,-57
2023-02-28T11:18:24.807Z,-59
2023-02-28T11:20:56.181Z,-58
2023-02-28T11:23:28.545Z,-56
2023-02-28T11:26:01.888Z,-56
2023-02-28T11:28:34.371Z,-58
2023-02-28T11:31:10.543Z,-58
2023-02-28T11:33:46.140Z,-56
2023-02-28T11:36:20.945Z,-57
2023-02-28T11:38:51.388Z,-59
2023-02-28T11:41:41.373Z,-58
2023-02-28T11:44:31.215Z,-57
2023-02-28T11:47:06.874Z,-58
2023-02-28T11:49:44.431Z,-57
2023-02-28T11:52:29.220Z,-58
2023-02-28T11:55:16.569Z,-57
2023-02-28T11:58:11.792Z,-58
2023-02-28T12:01:17.031Z,-56
2023-02-28T12:04:02.806Z,-59
2023-02-28T12:06:40.534Z,-58
2023-02-28T12:09:35.156Z,-58
2023-02-28T12:12:24.438Z,-57
2023-02-28T12:15:35.361Z,-56
2023-02-28T12:18:35.565Z,-58
2023-02-28T12:21:16.844Z,-57
2023-02-28T12:24:16.686Z,-56
2023-02-28T12:26:47.375Z,-58
2023-02-28T12:29:23.074Z,-56
2023-02-28T12:31:58.051Z,-58
2023-02-28T12:34:34.847Z,-60
2023-02-28T12:37:12.194Z,-57
2023-02-28T12:39:50.895Z,-57
2023-02-28T12:42:30.075Z,-57
2023-02-28T12:45:04.205Z,-56
2023-02-28T12:47:32.380Z,-58
2023-02-28T12:50:07.765Z,-57
2023-02-28T12:52:48.772Z,-57
2023-02-28T12:55:27.646Z,-57
2023-02-28T12:58:10.403Z,-58
2023-02-28T13:00:51.032Z,-59
2023-02-28T13:03:58.783Z,-56
2023-02-28T13:06:57.970Z,-56
2023-02-28T13:09:26.975Z,-56
2023-02-28T13:11:57.994Z,-59
2023-02-28T13:14:31.308Z,-56
2023-02-28T13:17:12.815Z,-57
2023-02-28T13:19:45.863Z,-58
2023-02-28T13:22:41.784Z,-56
2023-02-28T13:25:54.401Z,-58
2023-02-28T13:29:29.149Z,-56
2023-02-28T13:32:39.518Z,-56
2023-02-28T13:35:37.734Z,-57
2023-02-28T13:38:39.748Z,-56
2023-02-28T13:41:46.514Z,-57
2023-02-28T13:44:18.050Z,-58
2023-02-28T13:47:31.450Z,-59
2023-02-28T13:50:30.673Z,-57
2023-02-28T13:53:59.478Z,-58
2023-02-28T13:56:51.038Z,-57
2023-02-28T13:59:34.203Z,-57
2023-02-28T14:02:36.660Z,-56
2023-02-28T14:07:54.090Z,-56
2023-02-28T14:10:33.553Z,-56
2023-02-28T14:13:13.344Z,-56
2023-02-28T14:15:49.337Z,-58
2023-02-28T14:18:27.378Z,-57
2023-02-28T14:21:05.735Z,-58
2023-02-28T14:24:21.578Z,-58
2023-02-28T14:27:10.284Z,-57
2023-02-28T14:31:02.453Z,-57
2023-02-28T14:33:49.419Z,-58
2023-02-28T14:36:24.886Z,-56
2023-02-28T14:38:57.298Z,-57
2023-02-28T14:41:32.670Z,-57
2023-02-28T14:44:04.050Z,-57
2023-02-28T14:46:41.026Z,-58
2023-02-28T14:49:17.851Z,-58
2023-02-28T14:51:48.190Z,-57
2023-02-28T14:54:24.795Z,-57
2023-02-28T14:56:53.646Z,-56
2023-02-28T14:59:33.048Z,-58
2023-02-28T15:02:23.513Z,-57
2023-02-28T15:05:00.378Z,-57
2023-02-28T15:07:32.107Z,-57
2023-02-28T15:10:19.913Z,-57
2023-02-28T15:12:57.140Z,-56
2023-02-28T15:15:51.588Z,-57
2023-02-28T15:18:44.016Z,-57
2023-02-28T15:21:18.962Z,-56
2023-02-28T15:23:54.191Z,-56
2023-02-28T15:26:27.963Z,-57
2023-02-28T15:29:02.842Z,-56
2023-02-28T15:31:55.408Z,-56
2023-02-28T15:34:40.555Z,-57
2023-02-28T15:37:42.580Z,-56
2023-02-28T15:40:18.920Z,-57
2023-02-28T15:43:06.906Z,-56
2023-02-28T15:45:41.873Z,-58
2023-02-28T15:48:23.804Z,-55
2023-02-28T15:50:56.351Z,-58
2023-02-28T15:53:28.207Z,-59
2023-02-28T15:56:02.701Z,-57
2023-02-28T15:58:31.953Z,-57
2023-02-28T16:01:22.995Z,-58
2023-02-28T16:03:56.790Z,-57
2023-02-28T16:06:46.826Z,-59
2023-02-28T16:09:17.898Z,-58
2023-02-28T16:11:49.274Z,-59
2023-02-28T16:14:24.043Z,-56
2023-02-28T16:16:56.216Z,-58
2023-02-28T16:19:25.925Z,-56
2023-02-28T16:21:54.001Z,-55
2023-02-28T16:24:22.095Z,-56
2023-02-28T16:26:54.232Z,-56
2023-02-28T16:29:28.177Z,-57
2023-02-28T16:31:56.385Z,-57
2023-02-28T16:34:26.726Z,-58
2023-02-28T16:36:55.161Z,-57
2023-02-28T16:39:23.374Z,-58
2023-02-28T16:41:53.880Z,-54
2023-02-28T16:44:31.079Z,-58
2023-02-28T16:47:01.352Z,-56
2023-02-28T16:49:31.731Z,-56
2023-02-28T16:52:00.226Z,-58
2023-02-28T16:54:28.516Z,-57
2023-02-28T16:56:56.886Z,-56
2023-02-28T16:59:28.354Z,-56
2023-02-28T17:01:58.702Z,-55
2023-02-28T17:04:27.723Z,-55
2023-02-28T17:06:57.255Z,-57
2023-02-28T17:09:40.105Z,-58
2023-02-28T17:12:10.248Z,-56
2023-02-28T17:14:38.659Z,-59
2023-02-28T17:17:07.039Z,-58
2023-02-28T17:19:36.913Z,-60
2023-02-28T17:22:06.416Z,-58
2023-02-28T17:24:34.501Z,-57
2023-02-28T17:27:02.694Z,-58
2023-02-28T17:29:30.870Z,-62
2023-02-28T17:32:03.117Z,-59
2023-02-28T17:34:38.178Z,-57
2023-02-28T17:37:07.782Z,-58
2023-02-28T17:39:35.990Z,-58
2023-02-28T17:42:04.491Z,-60
2023-02-28T17:44:32.728Z,-58
2023-02-28T17:47:01.868Z,-56
2023-02-28T17:49:29.984Z,-58
2023-02-28T17:51:58.318Z,-58
2023-02-28T17:54:27.932Z,-58
2023-02-28T17:56:56.254Z,-57
2023-02-28T17:59:24.333Z,-58
2023-02-28T18:01:52.536Z,-60
2023-02-28T18:04:20.671Z,-58
2023-02-28T18:06:50.615Z,-59
2023-02-28T18:09:22.863Z,-58
2023-02-28T18:11:54.281Z,-58
2023-02-28T18:14:26.281Z,-57
2023-02-28T18:16:56.047Z,-58
2023-02-28T18:19:25.048Z,-57
2023-02-28T18:21:55.046Z,-58
2023-02-28T18:24:25.016Z,-58
2023-02-28T18:26:54.668Z,-57
2023-02-28T18:29:25.961Z,-57
2023-02-28T18:31:55.287Z,-58
2023-02-28T18:34:25.622Z,-57
2023-02-28T18:36:54.338Z,-60
2023-02-28T18:39:22.526Z,-59
2023-02-28T18:41:50.565Z,-58
2023-02-28T18:44:21.416Z,-59
2023-02-28T18:46:50.540Z,-58
2023-02-28T18:49:19.078Z,-64
2023-02-28T18:51:48.039Z,-64
2023-02-28T18:54:18.071Z,-65
2023-02-28T18:56:46.666Z,-65
2023-02-28T18:59:15.075Z,-64
2023-02-28T19:01:46.543Z,-65
2023-02-28T19:04:15.404Z,-65
2023-02-28T19:06:43.771Z,-64
2023-02-28T19:09:12.072Z,-64
2023-02-28T19:11:40.546Z,-64
2023-02-28T19:14:09.435Z,-64
2023-02-28T19:16:38.043Z,-65
2023-02-28T19:19:07.699Z,-65
2023-02-28T19:21:36.883Z,-64
2023-02-28T19:24:05.755Z,-63
2023-02-28T19:26:33.905Z,-64
2023-02-28T19:29:05.023Z,-65
2023-02-28T19:31:33.666Z,-64
2023-02-28T19:34:02.422Z,-66
2023-02-28T19:36:31.877Z,-64
2023-02-28T19:39:00.166Z,-63
2023-02-28T19:41:28.508Z,-65
2023-02-28T19:43:57.121Z,-65
2023-02-28T19:46:26.149Z,-64
2023-02-28T19:48:55.271Z,-66
2023-02-28T19:51:24.070Z,-65
2023-02-28T19:53:53.826Z,-64
2023-02-28T19:56:22.354Z,-64
2023-02-28T19:58:50.428Z,-65
2023-02-28T20:01:20.715Z,-64
2023-02-28T20:03:50.425Z,-64
2023-02-28T20:06:19.715Z,-64
2023-02-28T20:08:47.833Z,-65
2023-02-28T20:11:18.628Z,-65
2023-02-28T20:13:47.170Z,-64
2023-02-28T20:16:16.651Z,-64
2023-02-28T20:18:46.104Z,-64
2023-02-28T20:21:16.479Z,-65
2023-02-28T20:23:48.488Z,-64
2023-02-28T20:26:20.033Z,-64
2023-02-28T20:28:49.039Z,-63
2023-02-28T20:31:19.865Z,-64
2023-02-28T20:33:50.566Z,-65
2023-02-28T20:36:23.549Z,-64
2023-02-28T20:38:53.942Z,-65
2023-02-28T20:41:24.148Z,-64
2023-02-28T20:43:58.116Z,-64
2023-02-28T20:46:26.623Z,-65
2023-02-28T20:48:54.889Z,-65
2023-02-28T20:51:23.183Z,-65
2023-02-28T20:53:51.354Z,-65
2023-02-28T20:56:23.643Z,-65
2023-02-28T20:58:57.444Z,-64
2023-02-28T21:01:27.857Z,-64
2023-02-28T21:03:59.436Z,-65
2023-02-28T21:06:31.087Z,-64
2023-02-28T21:09:00.475Z,-66
2023-02-28T21:11:32.778Z,-64
2023-02-28T21:14:05.232Z,-64
2023-02-28T21:16:36.547Z,-65
2023-02-28T21:19:05.891Z,-64
2023-02-28T21:21:38.335Z,-64
2023-02-28T21:24:07.279Z,-65
2023-02-28T21:26:35.766Z,-65
2023-02-28T21:29:05.441Z,-64
2023-02-28T21:31:35.671Z,-64
2023-02-28T21:34:07.081Z,-65
2023-02-28T21:36:40.068Z,-65
2023-02-28T21:39:13.494Z,-62
2023-02-28T21:41:42.793Z,-62
2023-02-28T21:44:18.216Z,-64
2023-02-28T21:46:48.067Z,-64
2023-02-28T21:49:17.703Z,-65
2023-02-28T21:51:46.185Z,-61
2023-02-28T21:54:14.961Z,-63
2023-02-28T21:56:43.135Z,-63
2023-02-28T21:59:12.760Z,-62
2023-02-28T22:01:44.039Z,-63
2023-02-28T22:04:20.909Z,-63
2023-02-28T22:06:51.660Z,-64
2023-02-28T22:09:20.779Z,-64
2023-02-28T22:11:49.100Z,-64
2023-02-28T22:14:19.542Z,-64
2023-02-28T22:16:53.729Z,-61
2023-02-28T22:19:23.574Z,-63
2023-02-28T22:21:53.690Z,-63
2023-02-28T22:24:24.231Z,-64
2023-02-28T22:26:53.933Z,-63
2023-02-28T22:29:23.861Z,-64
2023-02-28T22:31:52.540Z,-63
2023-02-28T22:34:20.743Z,-63
2023-02-28T22:36:48.994Z,-65
2023-02-28T22:39:17.573Z,-64
2023-02-28T22:41:45.882Z,-65
2023-02-28T22:44:14.058Z,-65
2023-02-28T22:46:43.824Z,-65
2023-02-28T22:49:12.043Z,-64
2023-02-28T22:51:40.312Z,-63
2023-02-28T22:54:08.441Z,-63
2023-02-28T22:56:36.851Z,-65
2023-02-28T22:59:05.375Z,-64
2023-02-28T23:01:35.446Z,-64
2023-02-28T23:04:05.578Z,-63
2023-02-28T23:06:37.763Z,-67
2023-02-28T23:09:09.382Z,-65
2023-02-28T23:11:41.401Z,-63
2023-02-28T23:14:12.701Z,-64
2023-02-28T23:16:44.242Z,-64
2023-02-28T23:19:17.247Z,-65
2023-02-28T23:21:46.794Z,-63
2023-02-28T23:24:18.191Z,-64
2023-02-28T23:26:51.027Z,-64
2023-02-28T23:29:22.333Z,-64
2023-02-28T23:31:51.226Z,-64
2023-02-28T23:34:26.181Z,-63
2023-02-28T23:36:55.785Z,-65
2023-02-28T23:39:24.697Z,-64
2023-02-28T23:41:52.890Z,-62
2023-02-28T23:44:21.035Z,-62
2023-02-28T23:46:51.899Z,-64
2023-02-28T23:49:23.397Z,-64
2023-02-28T23:51:54.564Z,-63
2023-02-28T23:54:23.241Z,-63
2023-02-28T23:56:51.626Z,-65
2023-02-28T23:59:19.787Z,-63
